This is the latest recevied weather packets stored in our database for station/object SP2NBH-2. If no packets are shown the sender has not sent any weather packets the latest 10 day(s).
| Time | Temp. | Humidity | Pressure | Rain* | Wind** | Luminosity | Snow |
|---|---|---|---|---|---|---|---|
| 1777911775 | 22.22° C | 43% | 1011.8 hPa | - | - | - | - |
| 1777910942 | 22.22° C | 43% | 1011.8 hPa | - | - | - | - |
| 1777910875 | 22.22° C | 43% | 1011.8 hPa | - | - | - | - |
| 1777909077 | 20° C | 48% | 1011.6 hPa | - | - | - | - |
| 1777908177 | 20.56° C | 47% | 1011.4 hPa | - | - | - | - |
| 1777907277 | 21.67° C | 50% | 1011.5 hPa | - | - | - | - |
| 1777906376 | 19.44° C | 50% | 1011.5 hPa | - | - | - | - |
| 1777905476 | 20° C | 48% | 1011.5 hPa | - | - | - | - |
| 1777904576 | 21.11° C | 46% | 1011.5 hPa | - | - | - | - |
| 1777903676 | 20.56° C | 46% | 1011.3 hPa | - | - | - | - |
| 1777902776 | 25° C | 39% | 1011.1 hPa | - | - | - | - |
| 1777901926 | 24.44° C | 42% | 1011.1 hPa | - | - | - | - |
| 1777901876 | 24.44° C | 42% | 1011.1 hPa | - | - | - | - |
| 1777900976 | 23.33° C | 43% | 1011.2 hPa | - | - | - | - |
| 1777900111 | 17.22° C | 56% | 1011 hPa | - | - | - | - |
| 1777900076 | 17.22° C | 56% | 1011 hPa | - | - | - | - |
| 1777899176 | 23.89° C | 41% | 1011.2 hPa | - | - | - | - |
| 1777898276 | 21.67° C | 51% | 1011.2 hPa | - | - | - | - |
| 1777897376 | 17.78° C | 57% | 1011.1 hPa | - | - | - | - |
| 1777896476 | 17.78° C | 57% | 1011 hPa | - | - | - | - |
| 1777895576 | 17.22° C | 59% | 1010.9 hPa | - | - | - | - |
| 1777894676 | 20.56° C | 48% | 1010.7 hPa | - | - | - | - |
| 1777893776 | 24.44° C | 41% | 1010.7 hPa | - | - | - | - |
| 1777892876 | 22.22° C | 45% | 1010.7 hPa | - | - | - | - |
| 1777891975 | 22.78° C | 43% | 1011.1 hPa | - | - | - | - |
* Rain since midnight (hover to see other rain measurements)
** Current wind speed in m/s (hover to see current wind gust speed)